Pagina principale
METAR-TAF:

METAR-TAF

Aeroporti :

Aeroporto di Olbia-Costa Smeralda

Olbia, Italia

latitudine: 40-54N, longitudine: 009-31E, altezza: 11 m

Osservazione

Il bollettino è stato emesso 34 minuti fa, alle 17:20 UTC
Vento 10 kt da ovest/sud-ovest
Temperature 10°C
Umidità 66%
Pressione 1020 hPa
Visibilità 10 km o più
nessuna nube inferiore a 1500 m e nessun cumulonembo

METAR: LIEO 201720Z 24010KT CAVOK 10/04 Q1020

Ora: 18:54 (17:54 UTC)

Previsione

Il bollettino è stato emesso 54 minuti fa, alle 17:00 UTC
Previsione valida dal 20 alle 18 UTC al 21 alle 18 UTC
Vento 12 kt da ovest/sud-ovest
Visibilità 10 km o più
Nubi sparse ad un'altezza di 2000 ft
Temporaneamente
dal 21 alle 12 UTC al 21 alle 16 UTC
pioggia
Evoluzione graduale
dal 21 alle 15 UTC al 21 alle 17 UTC
Vento 5 kt da direzioni variabili

TAF: LIEO 201700Z 2018/2118 25012KT 9999 SCT020 TEMPO 2112/2116 RA BECMG 2115/2117 VRB05KT

Osservazioni e previsioni meteorologiche di più di 4000 aeroporti (messaggi METAR e TAF).

Le stazioni disponibili sono rappresentate dai dischi gialli e rossi sulla carta.

Puntare il mouse per vedere il nome della stazione.

Clicca sopra per visualizzare le osservazioni e previsioni meteorologiche.

Per cambiare la mappa : fare clic sui pulsanti verdi con una croce nera per ingrandire, il pulsante verde con un trattino per diminuire, o sulla freccia verde per le mappe adiacenti.


METAR-TAF: